createdAt,value
2018-07-23T00:00:10.757Z,90.00
2018-07-23T00:01:10.756Z,67.50
2018-07-23T00:02:10.816Z,45.00
2018-07-23T00:03:10.901Z,67.50
2018-07-23T00:04:10.864Z,67.50
2018-07-23T00:05:10.859Z,90.00
2018-07-23T00:06:10.791Z,22.50
2018-07-23T00:07:10.778Z,45.00
2018-07-23T00:08:10.773Z,45.00
2018-07-23T00:09:10.774Z,45.00
2018-07-23T00:10:10.778Z,90.00
2018-07-23T00:11:10.776Z,67.50
2018-07-23T00:12:10.779Z,22.50
2018-07-23T00:13:10.731Z,45.00
2018-07-23T00:14:10.847Z,45.00
2018-07-23T00:15:10.814Z,67.50
2018-07-23T00:16:10.905Z,67.50
2018-07-23T00:17:10.772Z,22.50
2018-07-23T00:18:10.855Z,67.50
2018-07-23T00:19:10.883Z,45.00
2018-07-23T00:20:10.767Z,22.50
2018-07-23T00:21:10.848Z,45.00
2018-07-23T00:22:10.855Z,45.00
2018-07-23T00:23:10.767Z,45.00
2018-07-23T00:24:10.888Z,45.00
2018-07-23T00:25:10.780Z,45.00
2018-07-23T00:26:10.746Z,45.00
2018-07-23T00:27:10.829Z,45.00
2018-07-23T00:28:10.860Z,45.00
2018-07-23T00:29:10.858Z,112.50
2018-07-23T00:30:10.861Z,67.50
2018-07-23T00:31:10.790Z,45.00
2018-07-23T00:32:10.859Z,45.00
2018-07-23T00:33:10.865Z,22.50
2018-07-23T00:34:10.793Z,22.50
2018-07-23T00:35:10.832Z,22.50
2018-07-23T00:36:10.791Z,45.00
2018-07-23T00:37:10.868Z,67.50
2018-07-23T00:38:10.903Z,67.50
2018-07-23T00:39:10.860Z,67.50
2018-07-23T00:40:10.838Z,90.00
2018-07-23T00:41:10.803Z,112.50
2018-07-23T00:42:10.796Z,135.00
2018-07-23T00:43:10.883Z,112.50
2018-07-23T00:44:10.877Z,112.50
2018-07-23T00:45:10.864Z,112.50
2018-07-23T00:46:10.790Z,135.00
2018-07-23T00:47:10.798Z,90.00
2018-07-23T00:48:10.869Z,67.50
2018-07-23T00:49:10.815Z,90.00
2018-07-23T00:50:10.801Z,67.50
2018-07-23T00:51:10.873Z,90.00
2018-07-23T00:52:10.802Z,90.00
2018-07-23T00:53:10.804Z,90.00
2018-07-23T00:54:10.816Z,67.50
2018-07-23T00:55:10.908Z,135.00
2018-07-23T00:56:10.875Z,135.00
2018-07-23T00:57:10.875Z,157.50
2018-07-23T00:58:10.847Z,135.00
2018-07-23T00:59:10.914Z,67.50
2018-07-23T01:00:10.887Z,90.00
2018-07-23T01:01:10.836Z,67.50
2018-07-23T01:02:10.899Z,90.00
2018-07-23T01:03:10.906Z,67.50
2018-07-23T01:04:10.904Z,67.50
2018-07-23T01:05:10.936Z,90.00
2018-07-23T01:06:10.857Z,67.50
2018-07-23T01:07:10.819Z,67.50
2018-07-23T01:08:10.945Z,67.50
2018-07-23T01:09:10.788Z,67.50
2018-07-23T01:10:10.882Z,67.50
2018-07-23T01:11:10.887Z,90.00
2018-07-23T01:12:10.866Z,112.50
2018-07-23T01:13:10.808Z,45.00
2018-07-23T01:14:10.911Z,90.00
2018-07-23T01:15:10.856Z,45.00
2018-07-23T01:16:10.896Z,45.00
2018-07-23T01:17:10.872Z,90.00
2018-07-23T01:18:10.871Z,67.50
2018-07-23T01:19:10.765Z,112.50
2018-07-23T01:20:10.914Z,112.50
2018-07-23T01:21:10.875Z,90.00
2018-07-23T01:22:10.825Z,90.00
2018-07-23T01:23:10.810Z,90.00
2018-07-23T01:24:10.884Z,67.50
2018-07-23T01:25:10.833Z,90.00
2018-07-23T01:26:10.888Z,90.00
2018-07-23T01:27:10.818Z,67.50
2018-07-23T01:28:10.958Z,67.50
2018-07-23T01:29:10.865Z,45.00
2018-07-23T01:30:10.875Z,45.00
2018-07-23T01:31:10.877Z,90.00
2018-07-23T01:32:10.870Z,45.00
2018-07-23T01:33:10.836Z,45.00
2018-07-23T01:34:10.908Z,67.50
2018-07-23T01:35:10.936Z,90.00
2018-07-23T01:36:10.937Z,90.00
2018-07-23T01:37:10.902Z,135.00
2018-07-23T01:38:10.826Z,135.00
2018-07-23T01:39:10.898Z,112.50
2018-07-23T01:40:10.832Z,67.50
2018-07-23T01:41:10.895Z,67.50
2018-07-23T01:42:10.896Z,135.00
2018-07-23T01:43:10.963Z,112.50
2018-07-23T01:44:10.902Z,112.50
2018-07-23T01:45:10.861Z,135.00
2018-07-23T01:46:10.901Z,112.50
2018-07-23T01:47:10.836Z,112.50
2018-07-23T01:48:10.831Z,90.00
2018-07-23T01:49:10.903Z,90.00
2018-07-23T01:50:10.863Z,45.00
2018-07-23T01:51:10.906Z,67.50
2018-07-23T01:52:10.872Z,67.50
2018-07-23T01:53:10.840Z,90.00
2018-07-23T01:54:10.911Z,67.50
2018-07-23T01:55:10.843Z,90.00
2018-07-23T01:56:10.844Z,112.50
2018-07-23T01:57:10.876Z,90.00
2018-07-23T01:58:10.914Z,90.00
2018-07-23T01:59:10.917Z,67.50
2018-07-23T02:00:10.915Z,67.50
2018-07-23T02:01:10.858Z,157.50
2018-07-23T02:02:10.834Z,90.00
2018-07-23T02:03:10.880Z,67.50
2018-07-23T02:04:10.980Z,157.50
2018-07-23T02:05:10.846Z,270.00
2018-07-23T02:06:10.861Z,135.00
2018-07-23T02:07:10.923Z,90.00
2018-07-23T02:08:10.887Z,112.50
2018-07-23T02:09:10.929Z,67.50
2018-07-23T02:10:10.959Z,67.50
2018-07-23T02:11:10.949Z,45.00
2018-07-23T02:12:10.903Z,45.00
2018-07-23T02:13:10.928Z,22.50
2018-07-23T02:14:10.934Z,45.00
2018-07-23T02:15:10.888Z,90.00
2018-07-23T02:16:10.930Z,90.00
2018-07-23T02:17:10.907Z,112.50
2018-07-23T02:18:10.951Z,202.50
2018-07-23T02:19:10.828Z,112.50
2018-07-23T02:20:10.871Z,22.50
2018-07-23T02:21:10.916Z,67.50
2018-07-23T02:22:10.924Z,45.00
2018-07-23T02:23:10.829Z,67.50
2018-07-23T02:24:10.890Z,112.50
2018-07-23T02:25:10.923Z,67.50
2018-07-23T02:26:10.919Z,90.00
2018-07-23T02:27:10.923Z,90.00
2018-07-23T02:28:10.965Z,202.50
2018-07-23T02:29:10.874Z,135.00
2018-07-23T02:30:10.876Z,67.50
2018-07-23T02:31:10.814Z,45.00
2018-07-23T02:32:10.926Z,22.50
2018-07-23T02:33:10.929Z,45.00
2018-07-23T02:34:10.841Z,22.50
2018-07-23T02:35:10.902Z,22.50
2018-07-23T02:36:10.881Z,247.50
2018-07-23T02:37:10.938Z,45.00
2018-07-23T02:38:10.873Z,180.00
2018-07-23T02:39:10.955Z,112.50
2018-07-23T02:40:10.866Z,112.50
2018-07-23T02:41:10.937Z,225.00
2018-07-23T02:42:10.867Z,180.00
2018-07-23T02:43:10.878Z,45.00
2018-07-23T02:44:10.943Z,67.50
2018-07-23T02:45:10.871Z,45.00
2018-07-23T02:46:10.945Z,22.50
2018-07-23T02:47:10.873Z,22.50
2018-07-23T02:48:10.952Z,45.00
2018-07-23T02:49:10.877Z,67.50
2018-07-23T02:50:10.919Z,67.50
2018-07-23T02:51:10.960Z,45.00
2018-07-23T02:52:10.858Z,90.00
2018-07-23T02:53:10.916Z,112.50
2018-07-23T02:54:10.923Z,112.50
2018-07-23T02:55:10.984Z,135.00
2018-07-23T02:56:10.890Z,67.50
2018-07-23T02:57:10.970Z,90.00
2018-07-23T02:58:10.889Z,90.00
2018-07-23T02:59:10.901Z,67.50
2018-07-23T03:00:10.921Z,45.00
2018-07-23T03:01:10.892Z,45.00
2018-07-23T03:02:10.963Z,292.50
2018-07-23T03:03:10.965Z,90.00
2018-07-23T03:04:10.965Z,67.50
2018-07-23T03:05:10.963Z,90.00
2018-07-23T03:06:10.896Z,67.50
2018-07-23T03:07:10.896Z,90.00
2018-07-23T03:08:10.969Z,45.00
2018-07-23T03:09:11.025Z,90.00
2018-07-23T03:10:10.897Z,90.00
2018-07-23T03:11:10.905Z,90.00
2018-07-23T03:12:10.865Z,112.50
2018-07-23T03:13:10.900Z,90.00
2018-07-23T03:14:10.929Z,135.00
2018-07-23T03:15:10.902Z,67.50
2018-07-23T03:16:10.904Z,157.50
2018-07-23T03:17:10.981Z,45.00
2018-07-23T03:18:10.974Z,22.50
2018-07-23T03:19:10.918Z,45.00
2018-07-23T03:20:10.975Z,45.00
2018-07-23T03:21:10.983Z,90.00
2018-07-23T03:22:10.903Z,90.00
2018-07-23T03:23:10.986Z,45.00
2018-07-23T03:24:10.984Z,90.00
2018-07-23T03:25:10.979Z,45.00
2018-07-23T03:26:10.984Z,90.00
2018-07-23T03:27:10.939Z,90.00
2018-07-23T03:28:10.968Z,67.50
2018-07-23T03:29:10.958Z,90.00
2018-07-23T03:30:11.015Z,180.00
2018-07-23T03:31:10.914Z,112.50
2018-07-23T03:32:10.905Z,67.50
2018-07-23T03:33:10.904Z,90.00
2018-07-23T03:34:11.071Z,135.00
2018-07-23T03:35:11.046Z,112.50
2018-07-23T03:36:11.023Z,90.00
2018-07-23T03:37:10.990Z,112.50
2018-07-23T03:38:11.010Z,67.50
2018-07-23T03:39:11.005Z,90.00
2018-07-23T03:40:11.052Z,90.00
2018-07-23T03:41:10.960Z,90.00
2018-07-23T03:42:11.013Z,90.00
2018-07-23T03:43:11.037Z,90.00
2018-07-23T03:44:10.948Z,90.00
2018-07-23T03:45:10.928Z,90.00
2018-07-23T03:46:10.988Z,90.00
2018-07-23T03:47:10.967Z,67.50
2018-07-23T03:48:11.015Z,90.00
2018-07-23T03:49:10.952Z,90.00
2018-07-23T03:50:10.963Z,90.00
2018-07-23T03:51:10.919Z,112.50
2018-07-23T03:52:10.972Z,112.50
2018-07-23T03:53:11.032Z,90.00
2018-07-23T03:54:11.001Z,67.50
2018-07-23T03:55:10.975Z,90.00
2018-07-23T03:56:10.996Z,90.00
2018-07-23T03:57:11.022Z,67.50
2018-07-23T03:58:11.003Z,67.50
2018-07-23T03:59:10.932Z,67.50
2018-07-23T04:00:11.006Z,67.50
2018-07-23T04:01:11.094Z,67.50
2018-07-23T04:02:10.933Z,90.00
2018-07-23T04:03:11.002Z,67.50
2018-07-23T04:04:10.934Z,67.50
2018-07-23T04:05:11.004Z,90.00
2018-07-23T04:06:10.937Z,67.50
2018-07-23T04:07:11.008Z,45.00
2018-07-23T04:08:11.008Z,67.50
2018-07-23T04:09:10.921Z,67.50
2018-07-23T04:10:10.991Z,112.50
2018-07-23T04:11:11.010Z,67.50
2018-07-23T04:12:11.036Z,90.00
2018-07-23T04:13:10.968Z,90.00
2018-07-23T04:14:10.966Z,112.50
2018-07-23T04:15:11.036Z,135.00
2018-07-23T04:16:11.013Z,45.00
2018-07-23T04:17:10.927Z,112.50
2018-07-23T04:18:10.977Z,67.50
2018-07-23T04:19:10.931Z,112.50
2018-07-23T04:20:11.012Z,135.00
2018-07-23T04:21:10.933Z,112.50
2018-07-23T04:22:11.006Z,90.00
2018-07-23T04:23:11.009Z,157.50
2018-07-23T04:24:10.975Z,157.50
2018-07-23T04:25:10.895Z,112.50
2018-07-23T04:26:11.008Z,135.00
2018-07-23T04:27:11.012Z,157.50
2018-07-23T04:28:10.982Z,90.00
2018-07-23T04:29:11.015Z,135.00
2018-07-23T04:30:11.009Z,157.50
2018-07-23T04:31:10.931Z,90.00
2018-07-23T04:32:10.936Z,90.00
2018-07-23T04:33:10.937Z,90.00
2018-07-23T04:34:11.012Z,90.00
2018-07-23T04:35:10.941Z,45.00
2018-07-23T04:36:10.941Z,135.00
2018-07-23T04:37:10.929Z,315.00
2018-07-23T04:38:10.961Z,180.00
2018-07-23T04:39:11.012Z,112.50
2018-07-23T04:40:10.966Z,90.00
2018-07-23T04:41:10.930Z,135.00
2018-07-23T04:42:11.024Z,135.00
2018-07-23T04:43:10.943Z,90.00
2018-07-23T04:44:10.953Z,90.00
2018-07-23T04:45:10.901Z,135.00
2018-07-23T04:46:11.018Z,135.00
2018-07-23T04:47:11.030Z,90.00
2018-07-23T04:48:10.961Z,157.50
2018-07-23T04:49:11.038Z,202.50
2018-07-23T04:50:10.969Z,157.50
2018-07-23T04:51:10.968Z,157.50
2018-07-23T04:52:11.037Z,67.50
2018-07-23T04:53:11.045Z,67.50
2018-07-23T04:54:10.966Z,67.50
2018-07-23T04:55:11.039Z,90.00
2018-07-23T04:56:11.050Z,67.50
2018-07-23T04:57:11.000Z,67.50
2018-07-23T04:58:11.020Z,45.00
2018-07-23T04:59:11.012Z,90.00
2018-07-23T05:00:11.078Z,67.50
2018-07-23T05:01:11.071Z,90.00
2018-07-23T05:02:11.044Z,90.00
2018-07-23T05:03:11.018Z,135.00
2018-07-23T05:04:11.080Z,135.00
2018-07-23T05:05:11.043Z,157.50
2018-07-23T05:06:10.940Z,135.00
2018-07-23T05:07:10.989Z,135.00
2018-07-23T05:08:10.949Z,90.00
2018-07-23T05:09:11.003Z,90.00
2018-07-23T05:10:11.042Z,90.00
2018-07-23T05:11:10.953Z,67.50
2018-07-23T05:12:11.041Z,67.50
2018-07-23T05:13:10.969Z,67.50
2018-07-23T05:14:10.952Z,157.50
2018-07-23T05:15:10.996Z,157.50
2018-07-23T05:16:10.974Z,112.50
2018-07-23T05:17:11.004Z,180.00
2018-07-23T05:18:10.975Z,90.00
2018-07-23T05:19:10.958Z,90.00
2018-07-23T05:20:11.045Z,90.00
2018-07-23T05:21:10.990Z,157.50
2018-07-23T05:22:10.923Z,135.00
2018-07-23T05:23:11.046Z,67.50
2018-07-23T05:24:10.996Z,135.00
2018-07-23T05:25:10.964Z,112.50
2018-07-23T05:26:10.970Z,112.50
2018-07-23T05:27:10.988Z,112.50
2018-07-23T05:28:11.057Z,112.50
2018-07-23T05:29:10.994Z,157.50
2018-07-23T05:30:10.995Z,90.00
2018-07-23T05:31:11.065Z,90.00
2018-07-23T05:32:10.952Z,157.50
2018-07-23T05:33:11.064Z,157.50
2018-07-23T05:34:11.061Z,135.00
2018-07-23T05:36:11.066Z,157.50
2018-07-23T05:37:10.970Z,135.00
2018-07-23T05:38:11.019Z,157.50
2018-07-23T05:39:11.048Z,157.50
2018-07-23T05:40:11.070Z,157.50
2018-07-23T05:41:11.108Z,135.00
2018-07-23T05:42:11.043Z,112.50
2018-07-23T05:43:11.087Z,90.00
2018-07-23T05:44:11.049Z,157.50
2018-07-23T05:45:11.146Z,180.00
2018-07-23T05:46:11.111Z,135.00
2018-07-23T05:47:10.999Z,90.00
2018-07-23T05:48:10.944Z,67.50
2018-07-23T05:49:11.004Z,157.50
2018-07-23T05:50:11.057Z,67.50
2018-07-23T05:51:10.971Z,135.00
2018-07-23T05:52:11.014Z,112.50
2018-07-23T05:53:10.971Z,90.00
2018-07-23T05:54:10.965Z,90.00
2018-07-23T05:55:11.032Z,135.00
2018-07-23T05:56:11.064Z,157.50
2018-07-23T05:57:11.013Z,157.50
2018-07-23T05:58:11.104Z,157.50
2018-07-23T05:59:11.093Z,157.50
2018-07-23T06:00:11.111Z,135.00
2018-07-23T06:01:11.135Z,112.50
2018-07-23T06:02:11.056Z,90.00
2018-07-23T06:03:11.102Z,67.50
2018-07-23T06:04:11.046Z,135.00
2018-07-23T06:05:11.106Z,157.50
2018-07-23T06:06:11.119Z,157.50
2018-07-23T06:07:11.119Z,135.00
2018-07-23T06:08:11.043Z,135.00
2018-07-23T06:09:11.051Z,157.50
2018-07-23T06:10:11.110Z,90.00
2018-07-23T06:11:11.010Z,90.00
2018-07-23T06:12:11.132Z,135.00
2018-07-23T06:13:11.114Z,112.50
2018-07-23T06:14:11.112Z,90.00
2018-07-23T06:15:11.125Z,90.00
2018-07-23T06:16:11.123Z,67.50
2018-07-23T06:17:11.057Z,90.00
2018-07-23T06:18:11.093Z,90.00
2018-07-23T06:19:11.112Z,112.50
2018-07-23T06:20:11.092Z,157.50
2018-07-23T06:21:11.023Z,157.50
2018-07-23T06:22:11.095Z,180.00
2018-07-23T06:23:11.097Z,157.50
2018-07-23T06:24:11.101Z,157.50
2018-07-23T06:25:11.032Z,157.50
2018-07-23T06:26:11.031Z,90.00
2018-07-23T06:27:11.077Z,90.00
2018-07-23T06:28:11.064Z,67.50
2018-07-23T06:29:11.001Z,90.00
2018-07-23T06:30:11.156Z,135.00
2018-07-23T06:31:11.126Z,112.50
2018-07-23T06:32:11.006Z,90.00
2018-07-23T06:33:11.122Z,90.00
2018-07-23T06:34:11.102Z,112.50
2018-07-23T06:35:11.020Z,90.00
2018-07-23T06:36:11.008Z,67.50
2018-07-23T06:37:11.083Z,90.00
2018-07-23T06:38:11.003Z,90.00
2018-07-23T06:39:10.976Z,67.50
2018-07-23T06:40:11.037Z,67.50
2018-07-23T06:41:11.088Z,90.00
2018-07-23T06:42:11.039Z,90.00
2018-07-23T06:43:11.127Z,90.00
2018-07-23T06:44:11.001Z,90.00
2018-07-23T06:45:11.012Z,112.50
2018-07-23T06:46:11.000Z,135.00
2018-07-23T06:47:11.071Z,157.50
2018-07-23T06:48:11.037Z,157.50
2018-07-23T06:49:11.133Z,135.00
2018-07-23T06:50:11.114Z,157.50
2018-07-23T06:51:11.073Z,67.50
2018-07-23T06:52:11.176Z,90.00
2018-07-23T06:53:11.139Z,67.50
2018-07-23T06:54:11.149Z,90.00
2018-07-23T06:55:11.153Z,90.00
2018-07-23T06:56:11.052Z,67.50
2018-07-23T06:57:11.096Z,90.00
2018-07-23T06:58:11.043Z,45.00
2018-07-23T06:59:11.122Z,247.50
2018-07-23T07:00:11.092Z,135.00
2018-07-23T07:01:11.044Z,90.00
2018-07-23T07:02:11.105Z,180.00
2018-07-23T07:03:11.133Z,67.50
2018-07-23T07:04:11.094Z,112.50
2018-07-23T07:05:11.147Z,90.00
2018-07-23T07:06:11.098Z,90.00
2018-07-23T07:07:11.063Z,90.00
2018-07-23T07:08:11.121Z,135.00
2018-07-23T07:09:11.089Z,90.00
2018-07-23T07:10:11.082Z,90.00
2018-07-23T07:11:11.092Z,135.00
2018-07-23T07:12:11.120Z,157.50
2018-07-23T07:13:11.036Z,112.50
2018-07-23T07:14:11.122Z,112.50
2018-07-23T07:15:11.123Z,135.00
2018-07-23T07:16:11.054Z,112.50
2018-07-23T07:17:11.065Z,67.50
2018-07-23T07:18:11.040Z,90.00
2018-07-23T07:19:11.166Z,135.00
2018-07-23T07:20:11.139Z,135.00
2018-07-23T07:21:11.055Z,90.00
2018-07-23T07:22:11.096Z,157.50
2018-07-23T07:23:11.066Z,180.00
2018-07-23T07:24:11.136Z,90.00
2018-07-23T07:25:11.177Z,112.50
2018-07-23T07:26:11.155Z,90.00
2018-07-23T07:27:11.164Z,90.00
2018-07-23T07:28:11.173Z,67.50
2018-07-23T07:29:11.108Z,67.50
2018-07-23T07:30:11.175Z,67.50
2018-07-23T07:31:11.078Z,67.50
2018-07-23T07:32:11.170Z,90.00
2018-07-23T07:33:11.063Z,90.00
2018-07-23T07:34:11.176Z,157.50
2018-07-23T07:35:11.069Z,90.00
2018-07-23T07:36:11.109Z,180.00
2018-07-23T07:37:11.047Z,157.50
2018-07-23T07:38:11.206Z,112.50
2018-07-23T07:39:11.119Z,112.50
2018-07-23T07:40:11.184Z,135.00
2018-07-23T07:41:11.068Z,90.00
2018-07-23T07:42:11.177Z,157.50
2018-07-23T07:43:11.072Z,90.00
2018-07-23T07:44:11.155Z,112.50
2018-07-23T07:45:11.178Z,135.00
2018-07-23T07:46:11.192Z,135.00
2018-07-23T07:47:11.071Z,157.50
2018-07-23T07:48:11.059Z,157.50
2018-07-23T07:49:11.144Z,157.50
2018-07-23T07:50:11.173Z,180.00
2018-07-23T07:51:11.072Z,157.50
2018-07-23T07:52:11.105Z,112.50
2018-07-23T07:53:11.154Z,157.50
2018-07-23T07:54:11.120Z,112.50
2018-07-23T07:55:11.077Z,90.00
2018-07-23T07:56:11.175Z,90.00
2018-07-23T07:57:11.090Z,67.50
2018-07-23T07:58:11.060Z,67.50
2018-07-23T07:59:11.120Z,90.00
2018-07-23T08:00:11.140Z,180.00
2018-07-23T08:01:11.166Z,180.00
2018-07-23T08:02:11.133Z,157.50
2018-07-23T08:03:11.165Z,180.00
2018-07-23T08:04:11.121Z,180.00
2018-07-23T08:05:11.105Z,157.50
2018-07-23T08:06:11.128Z,157.50
2018-07-23T08:07:11.206Z,157.50
2018-07-23T08:08:11.147Z,157.50
2018-07-23T08:09:11.148Z,90.00
2018-07-23T08:10:11.204Z,67.50
2018-07-23T08:11:11.201Z,90.00
2018-07-23T08:12:11.167Z,135.00
2018-07-23T08:13:11.182Z,90.00
2018-07-23T08:14:11.143Z,67.50
2018-07-23T08:15:11.206Z,180.00
2018-07-23T08:16:11.194Z,180.00
2018-07-23T08:17:11.194Z,112.50
2018-07-23T08:18:11.095Z,90.00
2018-07-23T08:19:11.187Z,135.00
2018-07-23T08:20:11.102Z,135.00
2018-07-23T08:21:11.100Z,157.50
2018-07-23T08:22:11.175Z,202.50
2018-07-23T08:23:11.087Z,90.00
2018-07-23T08:24:11.096Z,112.50
2018-07-23T08:25:11.198Z,135.00
2018-07-23T08:26:11.138Z,180.00
2018-07-23T08:27:11.059Z,202.50
2018-07-23T08:28:11.136Z,180.00
2018-07-23T08:29:11.135Z,180.00
2018-07-23T08:30:11.121Z,112.50
2018-07-23T08:31:11.201Z,202.50
2018-07-23T08:32:11.144Z,112.50
2018-07-23T08:33:11.044Z,112.50
2018-07-23T08:34:11.131Z,157.50
2018-07-23T08:35:11.049Z,112.50
2018-07-23T08:36:11.137Z,135.00
2018-07-23T08:37:11.133Z,112.50
2018-07-23T08:38:11.146Z,90.00
2018-07-23T08:39:11.120Z,67.50
2018-07-23T08:40:11.211Z,157.50
2018-07-23T08:41:11.121Z,202.50
2018-07-23T08:42:11.120Z,270.00
2018-07-23T08:43:11.147Z,180.00
2018-07-23T08:44:11.128Z,157.50
2018-07-23T08:45:11.126Z,135.00
2018-07-23T08:46:11.128Z,135.00
2018-07-23T08:47:11.199Z,90.00
2018-07-23T08:48:11.125Z,135.00
2018-07-23T08:49:11.201Z,180.00
2018-07-23T08:50:11.128Z,157.50
2018-07-23T08:51:11.227Z,157.50
2018-07-23T08:52:11.131Z,157.50
2018-07-23T08:53:11.130Z,135.00
2018-07-23T08:54:11.242Z,135.00
2018-07-23T08:55:11.167Z,112.50
2018-07-23T08:56:11.293Z,180.00
2018-07-23T08:57:11.203Z,247.50
2018-07-23T08:58:11.199Z,315.00
2018-07-23T08:59:11.197Z,270.00
2018-07-23T09:00:11.110Z,157.50
2018-07-23T09:01:11.107Z,202.50
2018-07-23T09:02:11.249Z,270.00
2018-07-23T09:03:11.078Z,292.50
2018-07-23T09:04:11.202Z,180.00
2018-07-23T09:05:11.145Z,225.00
2018-07-23T09:06:11.136Z,180.00
2018-07-23T09:07:11.079Z,225.00
2018-07-23T09:08:11.148Z,135.00
2018-07-23T09:09:11.172Z,225.00
2018-07-23T09:10:11.242Z,247.50
2018-07-23T09:11:11.209Z,180.00
2018-07-23T09:12:11.372Z,112.50
2018-07-23T09:13:11.240Z,90.00
2018-07-23T09:14:11.172Z,90.00
2018-07-23T09:15:11.214Z,67.50
2018-07-23T09:16:11.190Z,67.50
2018-07-23T09:17:11.151Z,247.50
2018-07-23T09:18:11.139Z,112.50
2018-07-23T09:19:11.117Z,270.00
2018-07-23T09:20:11.219Z,247.50
2018-07-23T09:21:11.188Z,270.00
2018-07-23T09:22:11.156Z,180.00
2018-07-23T09:23:11.211Z,180.00
2018-07-23T09:24:11.198Z,135.00
2018-07-23T09:25:11.123Z,270.00
2018-07-23T09:26:11.249Z,157.50
2018-07-23T09:27:11.127Z,90.00
2018-07-23T09:28:11.159Z,112.50
2018-07-23T09:29:11.224Z,202.50
2018-07-23T09:30:11.159Z,247.50
2018-07-23T09:31:11.287Z,270.00
2018-07-23T09:32:11.157Z,247.50
2018-07-23T09:33:11.223Z,315.00
2018-07-23T09:34:11.160Z,202.50
2018-07-23T09:35:11.225Z,135.00
2018-07-23T09:36:11.225Z,225.00
2018-07-23T09:37:11.207Z,292.50
2018-07-23T09:38:11.199Z,270.00
2018-07-23T09:39:11.190Z,157.50
2018-07-23T09:40:11.251Z,180.00
2018-07-23T09:41:11.137Z,225.00
2018-07-23T09:42:11.227Z,270.00
2018-07-23T09:43:11.305Z,292.50
2018-07-23T09:44:11.138Z,270.00
2018-07-23T09:45:11.155Z,292.50
2018-07-23T09:46:11.274Z,247.50
2018-07-23T09:47:11.237Z,292.50
2018-07-23T09:48:11.233Z,292.50
2018-07-23T09:49:11.235Z,202.50
2018-07-23T09:50:11.184Z,157.50
2018-07-23T09:51:11.240Z,90.00
2018-07-23T09:52:11.173Z,90.00
2018-07-23T09:53:11.133Z,67.50
2018-07-23T09:54:11.177Z,225.00
2018-07-23T09:55:11.241Z,180.00
2018-07-23T09:56:11.175Z,112.50
2018-07-23T09:57:11.240Z,180.00
2018-07-23T09:58:11.110Z,202.50
2018-07-23T09:59:11.234Z,157.50
2018-07-23T10:00:11.232Z,292.50
2018-07-23T10:01:11.169Z,292.50
2018-07-23T10:02:11.233Z,180.00
2018-07-23T10:03:11.262Z,157.50
2018-07-23T10:04:11.249Z,247.50
2018-07-23T10:05:11.230Z,292.50
2018-07-23T10:06:11.238Z,112.50
2018-07-23T10:07:11.232Z,135.00
2018-07-23T10:08:11.182Z,180.00
2018-07-23T10:09:11.180Z,202.50
2018-07-23T10:10:11.176Z,157.50
2018-07-23T10:11:11.139Z,135.00
2018-07-23T10:12:11.211Z,90.00
2018-07-23T10:13:11.184Z,157.50
2018-07-23T10:14:11.144Z,270.00
2018-07-23T10:16:11.207Z,292.50
2018-07-23T10:17:11.129Z,315.00
2018-07-23T10:18:11.188Z,270.00
2018-07-23T10:19:11.257Z,247.50
2018-07-23T10:20:11.193Z,180.00
2018-07-23T10:21:11.267Z,202.50
2018-07-23T10:22:11.277Z,225.00
2018-07-23T10:23:11.192Z,247.50
2018-07-23T10:24:11.280Z,247.50
2018-07-23T10:25:11.261Z,270.00
2018-07-23T10:26:11.259Z,202.50
2018-07-23T10:27:11.195Z,315.00
2018-07-23T10:28:11.216Z,270.00
2018-07-23T10:29:11.264Z,292.50
2018-07-23T10:30:11.229Z,270.00
2018-07-23T10:31:11.282Z,202.50
2018-07-23T10:32:11.208Z,180.00
2018-07-23T10:33:11.305Z,180.00
2018-07-23T10:34:11.229Z,225.00
2018-07-23T10:35:11.332Z,180.00
2018-07-23T10:36:11.175Z,292.50
2018-07-23T10:37:11.235Z,270.00
2018-07-23T10:38:11.197Z,270.00
2018-07-23T10:39:11.199Z,292.50
2018-07-23T10:40:11.308Z,202.50
2018-07-23T10:41:11.306Z,135.00
2018-07-23T10:42:11.222Z,225.00
2018-07-23T10:43:11.199Z,180.00
2018-07-23T10:44:11.202Z,157.50
2018-07-23T10:45:11.163Z,157.50
2018-07-23T10:46:11.166Z,180.00
2018-07-23T10:47:11.144Z,135.00
2018-07-23T10:48:11.242Z,112.50
2018-07-23T10:49:11.198Z,90.00
2018-07-23T10:50:11.302Z,135.00
2018-07-23T10:51:11.242Z,135.00
2018-07-23T10:52:11.300Z,157.50
2018-07-23T10:53:11.188Z,135.00
2018-07-23T10:54:11.317Z,202.50
2018-07-23T10:55:11.241Z,292.50
2018-07-23T10:56:11.303Z,292.50
2018-07-23T10:57:11.352Z,225.00
2018-07-23T10:58:11.286Z,270.00
2018-07-23T10:59:11.281Z,270.00
2018-07-23T11:00:11.216Z,157.50
2018-07-23T11:01:11.286Z,292.50
2018-07-23T11:02:11.220Z,225.00
2018-07-23T11:03:11.285Z,247.50
2018-07-23T11:04:11.223Z,225.00
2018-07-23T11:05:11.169Z,135.00
2018-07-23T11:06:11.228Z,180.00
2018-07-23T11:07:11.235Z,225.00
2018-07-23T11:08:11.195Z,315.00
2018-07-23T11:09:11.264Z,292.50
2018-07-23T11:10:11.318Z,270.00
2018-07-23T11:11:11.211Z,247.50
2018-07-23T11:12:11.412Z,225.00
2018-07-23T11:13:11.294Z,247.50
2018-07-23T11:14:11.295Z,225.00
2018-07-23T11:15:11.262Z,270.00
2018-07-23T11:16:11.247Z,292.50
2018-07-23T11:17:11.262Z,247.50
2018-07-23T11:18:11.191Z,270.00
2018-07-23T11:19:11.172Z,270.00
2018-07-23T11:20:11.250Z,225.00
2018-07-23T11:21:11.248Z,180.00
2018-07-23T11:22:11.199Z,135.00
2018-07-23T11:23:11.285Z,247.50
2018-07-23T11:24:11.209Z,270.00
2018-07-23T11:25:40.215Z,292.50
2018-07-23T11:26:11.311Z,270.00
2018-07-23T11:27:11.254Z,202.50
2018-07-23T11:28:11.274Z,225.00
2018-07-23T11:29:11.240Z,270.00
2018-07-23T11:30:11.242Z,157.50
2018-07-23T11:31:11.241Z,270.00
2018-07-23T11:32:11.277Z,292.50
2018-07-23T11:33:11.307Z,180.00
2018-07-23T11:34:11.199Z,270.00
2018-07-23T11:35:11.279Z,270.00
2018-07-23T11:36:11.279Z,202.50
2018-07-23T11:37:11.306Z,157.50
2018-07-23T11:38:11.240Z,202.50
2018-07-23T11:39:11.316Z,270.00
2018-07-23T11:40:11.244Z,247.50
2018-07-23T11:41:11.240Z,270.00
2018-07-23T11:42:11.243Z,247.50
2018-07-23T11:43:11.250Z,202.50
2018-07-23T11:44:11.213Z,157.50
2018-07-23T11:45:11.299Z,180.00
2018-07-23T11:46:24.425Z,180.00
2018-07-23T11:47:11.298Z,180.00
2018-07-23T11:48:11.307Z,135.00
2018-07-23T11:49:11.224Z,135.00
2018-07-23T11:50:11.190Z,225.00
2018-07-23T11:51:11.312Z,270.00
2018-07-23T11:53:11.255Z,292.50
2018-07-23T11:54:11.225Z,270.00
2018-07-23T11:55:11.304Z,225.00
2018-07-23T11:56:11.229Z,270.00
2018-07-23T11:57:11.227Z,270.00
2018-07-23T11:58:11.260Z,202.50
2018-07-23T11:59:11.257Z,225.00
2018-07-23T12:00:11.259Z,292.50
2018-07-23T12:01:11.325Z,135.00
2018-07-23T12:02:11.328Z,180.00
2018-07-23T12:03:11.331Z,225.00
2018-07-23T12:04:11.402Z,270.00
2018-07-23T12:05:11.263Z,270.00
2018-07-23T12:06:11.331Z,247.50
2018-07-23T12:07:11.265Z,292.50
2018-07-23T12:08:11.353Z,270.00
2018-07-23T12:09:11.335Z,292.50
2018-07-23T12:10:11.303Z,157.50
2018-07-23T12:11:11.358Z,225.00
2018-07-23T12:12:11.381Z,247.50
2018-07-23T12:13:11.353Z,292.50
2018-07-23T12:14:11.376Z,270.00
2018-07-23T12:15:11.277Z,270.00
2018-07-23T12:16:11.260Z,270.00
2018-07-23T12:17:11.315Z,247.50
2018-07-23T12:18:11.263Z,202.50
2018-07-23T12:19:11.338Z,225.00
2018-07-23T12:20:11.293Z,292.50
2018-07-23T12:21:11.370Z,270.00
2018-07-23T12:22:11.383Z,270.00
2018-07-23T12:23:11.342Z,270.00
2018-07-23T12:24:11.315Z,157.50
2018-07-23T12:25:11.340Z,157.50
2018-07-23T12:26:11.397Z,247.50
2018-07-23T12:27:11.306Z,247.50
2018-07-23T12:28:11.362Z,247.50
2018-07-23T12:29:11.306Z,292.50
2018-07-23T12:30:11.373Z,202.50
2018-07-23T12:31:11.345Z,270.00
2018-07-23T12:32:11.269Z,135.00
2018-07-23T12:33:11.306Z,202.50
2018-07-23T12:34:11.378Z,247.50
2018-07-23T12:35:11.366Z,270.00
2018-07-23T12:36:11.314Z,292.50
2018-07-23T12:37:11.390Z,292.50
2018-07-23T12:38:11.288Z,270.00
2018-07-23T12:39:11.354Z,270.00
2018-07-23T12:40:11.349Z,157.50
2018-07-23T12:41:11.294Z,202.50